Austin (LCRA Redbud)'s Hourly Summary for Saturday, April 15, 2017
Hour Temp
(f)
RH
(%)
Solar Rad.
(MJ/m2)
Rainfall
(in)
Wind
(mph)
4/15/2017 12:00 AM 70 71 0 0 1.53
4/15/2017 1:00 AM 70 78 0 0 3.07
4/15/2017 2:00 AM 69 83 0 0 3.64
4/15/2017 3:00 AM 69 86 0 0 3.38
4/15/2017 4:00 AM 69 87 0 0 3.87
4/15/2017 5:00 AM 69 87 0 0 2.87
4/15/2017 6:00 AM 68 88 0 0 2.13
4/15/2017 7:00 AM 68 89 0 0 1.54
4/15/2017 8:00 AM 68 89 0.04 0 1.91
4/15/2017 9:00 AM 69 86 0.33 0 3.14
4/15/2017 10:00 AM 71 77 0.9 0 3.31
4/15/2017 11:00 AM 73 70 1.29 0 3.98
4/15/2017 12:00 PM 75 63 1.93 0 4.02
4/15/2017 1:00 PM 78 57 2.78 0 4.94
4/15/2017 2:00 PM 80 52 2.56 0 4.69
4/15/2017 3:00 PM 81 52 2.33 0 4.08
4/15/2017 4:00 PM 81 51 1.97 0 4.38
4/15/2017 5:00 PM 82 50 1.51 0 3.91
4/15/2017 6:00 PM 82 49 1.18 0 3.62
4/15/2017 7:00 PM 81 51 0.8 0 4.23
4/15/2017 8:00 PM 79 55 0.15 0 3.96
4/15/2017 9:00 PM 77 61 0 0 3.36
4/15/2017 10:00 PM 75 64 0 0 3.14
4/15/2017 11:00 PM 73 70 0 0 2.12
Data Summary 74 69 17.77 0.00 3.37